Time;durP1;ratioP1;P1;durP2;ratioP2;P2;SDS_P1;SDS_P2;PMS_P1;PMS_P2;Temp;Humidity;BMP_temperature;BMP_pressure;BME280_temperature;BME280_humidity;BME280_pressure;Samples;Min_cycle;Max_cycle;Signal;HPM_P1;HPM_P2
2022/04/26 07:52:01;;;;;;;5.65;4.03;;;7.70;95.40;;;;;;5115774;27;20378;-54
2022/04/26 07:54:28;;;;;;;6.50;3.70;;;7.70;95.20;;;;;;5097763;28;20043;-51
2022/04/26 07:56:55;;;;;;;7.95;3.78;;;7.70;95.30;;;;;;5097907;28;20541;-52
2022/04/26 07:59:22;;;;;;;8.60;3.25;;;7.80;95.70;;;;;;5093879;28;20474;-53
2022/04/26 08:01:49;;;;;;;11.57;3.70;;;7.90;95.60;;;;;;5092430;28;20041;-53
2022/04/26 08:04:16;;;;;;;12.52;4.07;;;8.10;94.10;;;;;;5095628;28;20036;-53
2022/04/26 08:06:44;;;;;;;8.73;3.30;;;8.20;94.10;;;;;;5091900;28;20537;-49
2022/04/26 08:09:11;;;;;;;12.43;3.72;;;8.30;93.50;;;;;;5089021;28;20074;-48
2022/04/26 10:25:17;;;;;;;3.25;2.10;;;11.00;70.00;;;;;;5125309;27;20445;-51
2022/04/26 10:27:45;;;;;;;2.38;1.60;;;11.00;70.20;;;;;;5105908;28;20043;-55
2022/04/26 10:30:12;;;;;;;4.13;1.75;;;11.20;70.60;;;;;;5089570;28;20101;-50
2022/04/26 10:32:39;;;;;;;7.55;1.58;;;11.30;71.50;;;;;;5088525;28;20036;-53
2022/04/26 10:35:06;;;;;;;3.40;1.52;;;11.40;70.00;;;;;;5070966;28;20045;-53
2022/04/26 10:37:32;;;;;;;5.32;1.52;;;11.50;71.50;;;;;;5088182;28;20452;-53
2022/04/26 10:40:00;;;;;;;2.72;1.30;;;11.60;70.50;;;;;;5083667;28;20325;-56
2022/04/26 10:42:27;;;;;;;5.10;1.85;;;11.60;68.80;;;;;;5077073;28;20060;-52
2022/04/26 10:44:54;;;;;;;3.83;1.70;;;11.60;67.40;;;;;;5075687;28;20040;-53
2022/04/26 10:47:21;;;;;;;2.83;1.60;;;11.70;69.00;;;;;;5083775;28;20048;-56
2022/04/26 10:49:47;;;;;;;3.35;1.70;;;11.70;68.00;;;;;;5076851;28;20573;-54
2022/04/26 10:52:14;;;;;;;3.33;1.60;;;11.80;68.10;;;;;;5083009;28;20048;-50
2022/04/26 10:54:41;;;;;;;3.25;1.55;;;11.80;67.50;;;;;;5089578;28;20044;-53
2022/04/26 10:57:07;;;;;;;4.65;1.77;;;11.70;68.40;;;;;;5077068;28;20045;-52
2022/04/26 10:59:34;;;;;;;4.88;1.33;;;11.80;67.10;;;;;;5080991;28;20094;-55
2022/04/26 11:02:02;;;;;;;5.30;1.50;;;11.90;65.80;;;;;;5084009;28;20065;-53
2022/04/26 11:04:28;;;;;;;3.72;2.08;;;12.10;66.20;;;;;;5069894;28;20072;-53
2022/04/26 11:06:58;;;;;;;3.80;1.77;;;12.20;65.20;;;;;;5070111;28;20434;-56
2022/04/26 11:09:24;;;;;;;2.75;1.60;;;12.20;65.60;;;;;;5082154;28;20040;-52
2022/04/26 11:11:51;;;;;;;3.13;1.63;;;12.20;65.60;;;;;;5089492;28;20372;-53
2022/04/26 11:14:21;;;;;;;3.40;1.73;;;12.30;65.90;;;;;;5089287;28;20047;-51
2022/04/26 11:16:48;;;;;;;4.32;1.70;;;12.30;64.10;;;;;;5088664;28;20376;-52
2022/04/26 11:19:15;;;;;;;4.05;1.70;;;12.20;63.60;;;;;;5089211;28;20097;-51
2022/04/26 11:21:41;;;;;;;3.42;1.40;;;12.30;64.00;;;;;;5089107;28;20373;-51
2022/04/26 11:29:39;;;;;;;2.47;1.60;;;12.50;64.30;;;;;;5079143;28;20045;-52
2022/04/26 11:32:06;;;;;;;4.35;2.00;;;12.60;63.30;;;;;;5085300;28;20487;-56
2022/04/26 11:34:33;;;;;;;2.92;1.88;;;12.60;62.50;;;;;;5087788;28;20040;-52
2022/04/26 11:37:00;;;;;;;3.47;1.70;;;12.60;61.70;;;;;;5075190;28;20102;-57
2022/04/26 11:39:27;;;;;;;3.25;1.60;;;12.60;62.40;;;;;;5074730;28;20049;-54
2022/04/26 11:41:53;;;;;;;3.22;1.50;;;12.70;62.90;;;;;;5075293;28;20396;-54
2022/04/26 11:44:20;;;;;;;2.53;1.52;;;12.80;64.00;;;;;;5059753;28;20388;-57
2022/04/26 11:46:47;;;;;;;3.03;1.55;;;13.00;63.40;;;;;;5070826;28;20097;-57
2022/04/26 11:49:14;;;;;;;2.95;1.48;;;13.10;62.90;;;;;;5066607;28;20041;-50
2022/04/26 11:51:41;;;;;;;4.82;2.00;;;13.10;63.50;;;;;;5054708;28;20099;-54
2022/04/26 11:54:07;;;;;;;4.10;2.00;;;13.20;61.40;;;;;;5062506;28;20070;-56
2022/04/26 11:56:34;;;;;;;3.33;1.70;;;13.20;60.30;;;;;;5075092;28;20062;-52
2022/04/26 11:59:01;;;;;;;3.08;1.83;;;13.10;61.70;;;;;;5075208;28;20074;-54
2022/04/26 12:01:28;;;;;;;2.70;2.00;;;13.20;60.80;;;;;;5074985;28;20040;-54
2022/04/26 12:03:55;;;;;;;4.93;1.67;;;13.20;61.80;;;;;;5074938;28;20037;-52
2022/04/26 12:06:22;;;;;;;2.63;1.83;;;13.30;61.90;;;;;;5073920;28;20040;-51
2022/04/26 12:08:49;;;;;;;2.83;1.80;;;13.40;61.60;;;;;;5066865;28;20033;-52
2022/04/26 12:11:16;;;;;;;2.63;1.60;;;13.60;61.30;;;;;;5063894;28;20041;-52
2022/04/26 12:13:43;;;;;;;2.50;1.67;;;13.60;60.40;;;;;;5070591;28;20047;-50
2022/04/26 12:16:09;;;;;;;6.25;2.15;;;13.70;61.60;;;;;;5064685;28;20049;-50
2022/04/26 12:18:36;;;;;;;2.65;1.40;;;13.80;60.00;;;;;;5064409;28;20048;-52
2022/04/26 12:21:03;;;;;;;7.07;1.70;;;13.90;60.00;;;;;;5074596;28;20102;-49
2022/04/26 12:23:30;;;;;;;2.85;1.90;;;14.00;61.60;;;;;;5074223;28;20057;-50
2022/04/26 12:25:57;;;;;;;2.38;1.55;;;14.20;59.20;;;;;;5074873;28;20040;-45
2022/04/26 12:28:23;;;;;;;3.05;1.60;;;14.30;58.30;;;;;;5074487;28;20047;-53
2022/04/26 12:30:50;;;;;;;4.18;1.58;;;14.30;58.70;;;;;;5074646;28;20071;-55
2022/04/26 12:33:17;;;;;;;4.53;1.63;;;14.10;57.80;;;;;;5074644;28;20040;-53
2022/04/26 12:35:43;;;;;;;2.70;1.55;;;14.00;57.80;;;;;;5055233;28;20446;-54
2022/04/26 12:38:10;;;;;;;2.70;1.88;;;13.90;57.60;;;;;;5061705;28;20094;-51
2022/04/26 12:40:37;;;;;;;4.38;1.88;;;13.90;57.60;;;;;;5055181;28;20132;-52
2022/04/26 12:43:04;;;;;;;5.47;2.30;;;14.10;56.80;;;;;;5061272;28;20049;-51
2022/04/26 12:45:30;;;;;;;5.70;1.80;;;14.20;56.40;;;;;;5074168;28;20036;-51
2022/04/26 12:50:50;;;;;;;4.35;1.88;;;14.20;55.80;;;;;;5066920;28;20124;-50
2022/04/26 12:53:17;;;;;;;2.78;1.80;;;14.20;56.40;;;;;;5074062;28;20036;-52
2022/04/26 12:55:43;;;;;;;2.40;1.80;;;14.20;55.90;;;;;;5074143;28;20110;-54
2022/04/26 12:58:10;;;;;;;4.07;1.80;;;14.10;55.20;;;;;;5059037;28;20111;-50
2022/04/26 13:00:39;;;;;;;3.00;1.70;;;14.10;54.70;;;;;;5054701;28;20427;-51
2022/04/26 13:03:06;;;;;;;3.25;1.75;;;14.30;57.50;;;;;;5055609;28;20530;-51
2022/04/26 13:05:34;;;;;;;3.22;1.95;;;14.50;55.90;;;;;;5058836;28;20354;-51
2022/04/26 13:08:00;;;;;;;3.03;1.70;;;14.60;55.00;;;;;;5054777;28;20041;-52
2022/04/26 13:10:27;;;;;;;3.30;1.73;;;14.60;53.10;;;;;;5056845;28;20036;-54
2022/04/26 13:12:54;;;;;;;3.85;1.95;;;14.50;53.50;;;;;;5071022;28;20044;-52
2022/04/26 13:15:23;;;;;;;2.40;1.70;;;14.50;52.80;;;;;;5054507;28;20032;-52
2022/04/26 13:17:50;;;;;;;3.42;1.90;;;14.50;53.00;;;;;;5069686;28;20442;-48
2022/04/26 13:20:17;;;;;;;3.20;1.65;;;14.60;52.70;;;;;;5073786;28;20393;-50
2022/04/26 13:22:43;;;;;;;2.45;1.50;;;14.60;51.00;;;;;;5059326;28;20072;-52
2022/04/26 13:25:10;;;;;;;2.78;1.88;;;14.60;51.40;;;;;;5054774;28;20053;-54
2022/04/26 13:27:40;;;;;;;5.43;1.60;;;14.70;51.30;;;;;;5070044;28;20032;-54
2022/04/26 13:30:07;;;;;;;7.60;1.60;;;14.90;51.70;;;;;;5067302;28;20036;-55
2022/04/26 13:32:33;;;;;;;2.63;1.55;;;14.90;52.40;;;;;;5068625;28;20041;-52
2022/04/26 13:35:00;;;;;;;5.00;2.00;;;15.00;52.50;;;;;;5066113;28;20048;-56
2022/04/26 13:37:29;;;;;;;2.90;1.60;;;15.10;51.10;;;;;;5054166;28;20052;-51
2022/04/26 13:39:58;;;;;;;2.63;1.42;;;15.00;50.90;;;;;;5054199;28;20045;-50
2022/04/26 13:42:27;;;;;;;8.07;1.80;;;14.90;51.00;;;;;;5053984;28;20041;-53
2022/04/26 13:44:54;;;;;;;2.90;1.67;;;14.90;51.90;;;;;;5061986;28;20049;-52
2022/04/26 13:47:21;;;;;;;2.72;1.60;;;14.90;50.90;;;;;;5073093;28;20455;-53
2022/04/26 13:49:48;;;;;;;2.15;1.30;;;15.00;50.70;;;;;;5064864;28;20076;-53
2022/04/26 13:52:15;;;;;;;4.82;1.52;;;15.10;52.30;;;;;;5053696;28;20049;-53
2022/04/26 13:54:44;;;;;;;2.63;1.63;;;15.50;51.90;;;;;;5054052;28;20048;-50
2022/04/26 13:57:11;;;;;;;5.07;1.60;;;15.60;51.30;;;;;;5053740;28;20444;-52
2022/04/26 13:59:38;;;;;;;2.67;1.70;;;15.50;49.80;;;;;;5054444;28;20483;-52
2022/04/26 14:02:05;;;;;;;5.22;2.10;;;15.30;50.30;;;;;;5063170;28;20083;-52
2022/04/26 14:04:32;;;;;;;4.47;1.60;;;15.20;51.00;;;;;;5053194;28;20049;-50
2022/04/26 14:06:59;;;;;;;2.50;1.80;;;15.20;50.70;;;;;;5067295;28;20041;-55
2022/04/26 14:09:25;;;;;;;3.35;1.67;;;15.30;51.20;;;;;;5071385;28;20044;-49
2022/04/26 14:11:55;;;;;;;5.15;2.63;;;15.20;51.50;;;;;;5072125;28;20036;-51
2022/04/26 14:22:45;;;;;;;;;;;15.30;50.80;;;;;;5053376;28;20049;-54
2022/04/26 14:25:13;;;;;;;2.33;1.50;;;15.30;51.00;;;;;;5053860;28;19939;-52
2022/04/26 14:27:40;;;;;;;2.88;1.63;;;15.30;50.60;;;;;;5072231;28;20117;-51
2022/04/26 14:30:07;;;;;;;3.22;1.83;;;15.30;50.40;;;;;;5072066;28;20047;-53
2022/04/26 14:32:54;;;;;;;4.35;2.03;;;15.30;50.10;;;;;;5071902;28;20129;-54
2022/04/26 14:35:21;;;;;;;3.25;1.90;;;15.30;49.80;;;;;;5072303;28;20052;-55
2022/04/26 14:37:53;;;;;;;3.88;1.88;;;15.30;51.30;;;;;;5072204;28;20055;-54
2022/04/26 14:40:20;;;;;;;4.50;1.98;;;15.30;52.10;;;;;;5072298;28;20080;-54
2022/04/26 14:42:47;;;;;;;4.57;2.10;;;15.30;52.30;;;;;;5071837;28;20037;-54
2022/04/26 14:45:14;;;;;;;4.78;1.83;;;15.40;51.40;;;;;;5072062;28;20068;-50
2022/04/26 14:47:41;;;;;;;6.85;2.33;;;15.40;52.30;;;;;;5071169;28;20415;-56
2022/04/26 14:50:09;;;;;;;4.03;1.85;;;15.50;52.00;;;;;;5052995;28;20099;-54
2022/04/26 14:52:36;;;;;;;4.82;1.88;;;15.50;52.10;;;;;;5052542;28;20041;-54
2022/04/26 14:55:04;;;;;;;5.13;2.10;;;15.40;51.70;;;;;;5070623;28;20036;-56
2022/04/26 14:57:30;;;;;;;3.88;2.13;;;15.30;51.40;;;;;;5052677;28;20041;-50
2022/04/26 14:59:57;;;;;;;3.70;2.03;;;15.30;51.10;;;;;;5058088;28;20036;-53
2022/04/26 15:02:24;;;;;;;2.47;1.75;;;15.30;51.20;;;;;;5070188;28;20476;-56
2022/04/26 15:04:51;;;;;;;3.63;1.83;;;15.30;51.10;;;;;;5071427;28;20041;-55
2022/04/26 15:07:18;;;;;;;3.45;1.95;;;15.30;51.60;;;;;;5071913;28;20050;-52
2022/04/26 15:09:52;;;;;;;3.80;1.70;;;15.20;52.20;;;;;;5071849;28;20040;-55
2022/04/26 15:17:49;;;;;;;3.45;1.80;;;15.30;52.20;;;;;;5067716;28;20052;-53
2022/04/26 15:20:17;;;;;;;2.85;1.60;;;15.40;52.50;;;;;;5066331;28;20093;-53
2022/04/26 15:22:44;;;;;;;4.55;1.92;;;15.40;51.70;;;;;;5057827;28;20048;-51
2022/04/26 15:25:11;;;;;;;2.50;1.70;;;15.30;52.80;;;;;;5065012;28;20045;-53
2022/04/26 15:27:41;;;;;;;3.88;1.88;;;15.20;53.30;;;;;;5074924;28;20499;-51
2022/04/26 15:30:07;;;;;;;3.72;1.98;;;15.10;53.80;;;;;;5069359;28;20044;-55
2022/04/26 15:32:34;;;;;;;2.55;1.75;;;15.00;53.80;;;;;;5069651;28;20528;-55
2022/04/26 15:35:01;;;;;;;4.60;1.98;;;14.90;54.70;;;;;;5063027;28;20045;-54
2022/04/26 15:37:33;;;;;;;3.33;2.10;;;15.00;55.40;;;;;;5073216;28;20040;-54
2022/04/26 15:40:00;;;;;;;4.97;2.15;;;15.10;56.20;;;;;;5065132;28;20110;-52
2022/04/26 15:42:27;;;;;;;3.80;2.00;;;15.10;56.20;;;;;;5074970;28;20037;-54
2022/04/26 15:44:53;;;;;;;7.03;2.30;;;15.00;57.00;;;;;;5074882;28;20419;-54
2022/04/26 15:47:20;;;;;;;8.25;2.33;;;15.20;57.20;;;;;;5072270;28;20029;-52
2022/04/26 15:49:47;;;;;;;4.03;2.40;;;15.20;57.00;;;;;;5066986;28;20492;-54
2022/04/26 15:52:14;;;;;;;3.00;2.30;;;15.20;57.10;;;;;;5057081;28;20064;-53
2022/04/26 15:54:43;;;;;;;3.60;2.38;;;15.20;57.80;;;;;;5058144;28;20062;-54
2022/04/26 15:57:11;;;;;;;6.70;2.30;;;15.20;58.00;;;;;;5069436;28;20045;-54
2022/04/26 15:59:38;;;;;;;4.43;2.55;;;15.20;58.00;;;;;;5061871;28;20037;-54
2022/04/26 16:02:07;;;;;;;3.05;2.05;;;15.20;59.00;;;;;;5055370;28;20108;-52
2022/04/26 16:04:34;;;;;;;6.70;2.47;;;15.30;59.00;;;;;;5068879;28;20063;-50
2022/04/26 16:07:02;;;;;;;4.13;2.38;;;15.30;59.20;;;;;;5071474;28;20037;-51
2022/04/26 16:20:31;;;;;;;;;;;15.60;58.90;;;;;;5069921;28;20041;-54
2022/04/26 16:22:58;;;;;;;3.45;2.00;;;15.60;59.60;;;;;;5066329;28;20427;-53
2022/04/26 16:25:25;;;;;;;4.70;2.13;;;15.40;57.90;;;;;;5070925;28;20533;-54
2022/04/26 16:27:52;;;;;;;7.18;2.50;;;15.40;60.40;;;;;;5069558;28;20036;-54
2022/04/26 16:30:25;;;;;;;3.63;2.17;;;15.30;60.00;;;;;;5074486;28;20037;-56
2022/04/26 16:32:52;;;;;;;3.30;2.30;;;15.30;59.60;;;;;;5074118;28;20045;-54
2022/04/26 16:35:19;;;;;;;4.03;2.50;;;15.00;59.50;;;;;;5074681;28;20040;-48
2022/04/26 16:37:45;;;;;;;4.60;2.47;;;15.00;61.00;;;;;;5066209;28;20041;-54
2022/04/26 16:40:12;;;;;;;5.45;2.60;;;14.90;61.50;;;;;;5056829;28;20151;-51
2022/04/26 16:42:39;;;;;;;6.32;2.88;;;15.00;62.80;;;;;;5074154;28;20529;-53
2022/04/26 16:45:06;;;;;;;6.35;3.00;;;15.10;64.20;;;;;;5073611;28;20090;-55
2022/04/26 16:47:32;;;;;;;4.40;2.88;;;15.00;65.00;;;;;;5072704;28;20488;-52
2022/04/26 16:49:59;;;;;;;7.57;3.20;;;14.90;66.40;;;;;;5074298;28;20047;-53
2022/04/26 16:52:26;;;;;;;5.55;2.97;;;14.90;66.90;;;;;;5073953;28;20529;-49
2022/04/26 16:54:53;;;;;;;6.95;3.20;;;14.80;65.60;;;;;;5073177;28;20068;-49
2022/04/26 16:57:20;;;;;;;7.90;3.28;;;14.70;67.50;;;;;;5066925;28;20420;-50
2022/04/26 16:59:47;;;;;;;7.53;3.05;;;14.60;68.80;;;;;;5058845;28;20033;-50
2022/04/26 17:02:18;;;;;;;5.32;2.90;;;14.80;69.60;;;;;;5072826;28;20041;-55
2022/04/26 17:04:45;;;;;;;6.45;2.83;;;14.80;69.90;;;;;;5073815;28;20493;-52
2022/04/26 17:07:12;;;;;;;7.53;3.13;;;14.90;70.20;;;;;;5073820;28;20498;-49
2022/04/26 17:09:39;;;;;;;7.18;3.13;;;15.00;70.00;;;;;;5073722;28;20472;-51
2022/04/26 17:12:06;;;;;;;6.93;3.15;;;14.90;70.60;;;;;;5073715;28;20075;-50
2022/04/26 17:14:35;;;;;;;5.50;2.70;;;14.90;70.90;;;;;;5073676;28;20048;-54
2022/04/26 17:17:04;;;;;;;5.20;2.90;;;14.80;71.70;;;;;;5074037;28;20036;-50
2022/04/26 17:19:30;;;;;;;5.85;2.83;;;14.70;71.80;;;;;;5073551;28;20094;-55
2022/04/26 17:21:59;;;;;;;8.52;3.05;;;14.70;71.30;;;;;;5073241;28;20041;-57
2022/04/26 17:27:11;;;;;;;6.68;2.95;;;14.50;72.40;;;;;;5073497;28;20036;-52
2022/04/26 17:29:38;;;;;;;7.50;2.90;;;14.50;72.20;;;;;;5072775;28;20380;-51
2022/04/26 17:32:05;;;;;;;9.85;3.40;;;14.50;72.00;;;;;;5064697;28;20446;-51
2022/04/26 17:34:32;;;;;;;4.20;3.10;;;14.40;71.70;;;;;;5052108;28;20136;-50
2022/04/26 17:36:59;;;;;;;9.90;3.33;;;14.40;71.80;;;;;;5054104;28;20472;-52
2022/04/26 17:39:36;;;;;;;6.20;3.00;;;14.30;72.10;;;;;;5070093;28;20037;-53
2022/04/26 17:42:03;;;;;;;5.55;2.90;;;14.30;72.40;;;;;;5072896;28;20044;-50
2022/04/26 17:44:31;;;;;;;6.78;3.00;;;14.20;72.70;;;;;;5073198;28;20033;-52
2022/04/26 17:47:00;;;;;;;7.25;2.90;;;14.20;72.90;;;;;;5073084;28;20033;-51
2022/04/26 17:49:47;;;;;;;6.35;2.92;;;14.20;73.40;;;;;;5053868;28;20048;-54
2022/04/26 17:52:14;;;;;;;4.82;3.13;;;14.20;73.70;;;;;;5053694;28;20055;-53
2022/04/26 17:57:26;;;;;;;6.95;2.95;;;14.10;74.40;;;;;;5072914;28;20044;-51
2022/04/26 17:59:52;;;;;;;5.93;2.97;;;14.00;74.00;;;;;;5072998;28;20487;-54
2022/04/26 18:02:19;;;;;;;7.88;3.00;;;14.00;73.90;;;;;;5072868;28;20048;-51
2022/04/26 18:04:46;;;;;;;6.03;3.22;;;14.00;75.20;;;;;;5073031;28;20048;-54
2022/04/26 18:07:13;;;;;;;6.38;2.80;;;13.90;75.20;;;;;;5073169;28;20054;-54
2022/04/26 18:09:40;;;;;;;6.30;3.08;;;13.90;74.10;;;;;;5072705;28;20102;-52
2022/04/26 18:12:06;;;;;;;5.57;3.08;;;13.80;74.30;;;;;;5072745;28;20044;-56
2022/04/26 18:14:33;;;;;;;6.95;3.40;;;13.80;74.30;;;;;;5072255;28;20068;-52
2022/04/26 18:17:01;;;;;;;7.63;3.33;;;13.70;75.10;;;;;;5072699;28;20502;-53
2022/04/26 18:19:28;;;;;;;5.95;3.00;;;13.70;75.80;;;;;;5072877;28;20064;-54
2022/04/26 18:21:54;;;;;;;7.97;2.85;;;13.60;76.40;;;;;;5072482;28;20064;-54
2022/04/26 18:24:22;;;;;;;7.68;3.25;;;13.60;77.00;;;;;;5072610;28;20545;-49
2022/04/26 18:26:48;;;;;;;8.70;3.47;;;13.60;77.10;;;;;;5072020;28;20044;-53
2022/04/26 18:29:21;;;;;;;8.02;3.55;;;13.60;77.40;;;;;;5072639;28;20109;-53
2022/04/26 18:31:50;;;;;;;7.10;3.05;;;13.60;77.60;;;;;;5072505;28;20040;-53
2022/04/26 18:34:19;;;;;;;6.45;3.30;;;13.60;77.60;;;;;;5072678;28;20064;-51
2022/04/26 18:36:46;;;;;;;9.77;3.00;;;13.60;77.80;;;;;;5062586;28;20121;-51
2022/04/26 18:39:13;;;;;;;7.82;3.05;;;13.60;78.40;;;;;;5072376;28;20087;-53
2022/04/26 18:41:40;;;;;;;7.63;3.05;;;13.50;78.30;;;;;;5072716;28;20044;-51
2022/04/26 18:44:06;;;;;;;8.65;3.20;;;13.40;78.60;;;;;;5072116;28;20097;-56
2022/04/26 18:46:33;;;;;;;7.13;3.60;;;13.30;79.10;;;;;;5061804;28;20119;-55
2022/04/26 18:49:00;;;;;;;6.35;3.53;;;13.20;79.40;;;;;;5056696;28;20053;-54
2022/04/26 18:51:27;;;;;;;10.40;3.95;;;13.10;80.20;;;;;;5072086;28;20044;-50
2022/04/26 18:53:54;;;;;;;9.05;3.47;;;13.00;80.70;;;;;;5076357;28;20480;-50
2022/04/26 18:56:21;;;;;;;6.97;3.42;;;13.00;81.20;;;;;;5076295;28;20041;-54
2022/04/26 18:58:49;;;;;;;5.65;3.65;;;12.90;81.50;;;;;;5076171;28;20502;-50
2022/04/26 19:01:16;;;;;;;7.38;3.92;;;12.90;81.50;;;;;;5076379;28;20041;-58
2022/04/26 19:03:44;;;;;;;7.75;3.65;;;12.90;82.10;;;;;;5076261;28;20487;-54
2022/04/26 19:06:12;;;;;;;6.55;3.50;;;12.80;82.30;;;;;;5076273;28;20491;-52
2022/04/26 19:08:38;;;;;;;8.27;3.50;;;12.70;82.40;;;;;;5076327;28;20071;-50
2022/04/26 19:13:52;;;;;;;5.38;3.20;;;12.60;84.20;;;;;;5076114;28;20885;-50
2022/04/26 19:16:19;;;;;;;6.30;3.60;;;12.60;83.80;;;;;;5075863;28;20048;-52
2022/04/26 19:18:46;;;;;;;9.15;3.40;;;12.60;84.00;;;;;;5066327;28;20123;-55
2022/04/26 19:21:13;;;;;;;11.20;3.88;;;12.40;83.80;;;;;;5068934;28;20368;-55
2022/04/26 19:23:40;;;;;;;7.13;3.45;;;12.40;84.10;;;;;;5056684;28;20107;-52
2022/04/26 19:26:07;;;;;;;4.38;3.15;;;12.20;84.70;;;;;;5068164;28;20189;-50
2022/04/26 19:28:37;;;;;;;5.95;3.33;;;12.10;85.50;;;;;;5069188;28;20056;-51
2022/04/26 19:31:05;;;;;;;5.05;3.13;;;12.00;85.80;;;;;;5068592;28;20049;-53
2022/04/26 19:33:31;;;;;;;5.63;3.35;;;12.00;86.30;;;;;;5064235;28;20075;-50
2022/04/26 19:35:59;;;;;;;9.57;3.55;;;12.00;86.70;;;;;;5074844;28;20067;-54
2022/04/26 19:38:25;;;;;;;6.97;3.60;;;12.00;87.30;;;;;;5075738;28;20043;-52
2022/04/26 19:40:53;;;;;;;8.43;4.03;;;11.90;87.60;;;;;;5073908;28;20102;-51
2022/04/26 19:43:19;;;;;;;7.40;3.65;;;11.90;87.70;;;;;;5054953;28;20107;-56
2022/04/26 19:45:47;;;;;;;7.30;3.50;;;11.80;88.80;;;;;;5065162;28;20051;-53
2022/04/26 19:48:14;;;;;;;6.00;3.60;;;11.80;88.40;;;;;;5075543;28;20044;-52
2022/04/26 19:53:26;;;;;;;;;;;11.60;88.30;;;;;;5075968;28;20124;-51
2022/04/26 19:55:53;;;;;;;7.50;3.50;;;11.60;88.40;;;;;;5074797;28;20019;-53
2022/04/26 19:58:20;;;;;;;6.07;3.60;;;11.50;88.10;;;;;;5075156;28;20545;-49
2022/04/26 20:00:47;;;;;;;6.03;3.83;;;11.50;88.00;;;;;;5075255;28;20048;-55
2022/04/26 20:03:14;;;;;;;7.68;4.38;;;11.50;87.80;;;;;;5071446;28;20048;-54
2022/04/26 20:05:41;;;;;;;6.47;3.97;;;11.50;87.80;;;;;;5055842;28;20048;-50
2022/04/26 20:08:08;;;;;;;7.10;3.83;;;11.50;88.20;;;;;;5055803;28;20156;-52
2022/04/26 20:10:35;;;;;;;9.55;4.40;;;11.50;88.10;;;;;;5066093;28;20212;-51
2022/04/26 20:13:01;;;;;;;8.65;4.07;;;11.50;88.00;;;;;;5075008;28;20063;-50
2022/04/26 20:15:28;;;;;;;10.82;4.68;;;11.50;87.90;;;;;;5058860;28;20063;-51
2022/04/26 20:17:55;;;;;;;6.88;3.65;;;11.40;88.10;;;;;;5055704;28;20041;-49
2022/04/26 20:20:22;;;;;;;9.85;4.28;;;11.30;88.40;;;;;;5054651;28;20070;-51
2022/04/26 20:22:49;;;;;;;6.38;4.38;;;11.20;88.70;;;;;;5055649;28;20045;-52
2022/04/26 20:25:16;;;;;;;6.95;4.47;;;11.20;89.10;;;;;;5055316;28;20168;-54
2022/04/26 20:30:30;;;;;;;9.85;4.47;;;11.10;90.00;;;;;;5069713;28;20044;-50
2022/04/26 20:32:58;;;;;;;7.03;4.13;;;11.00;90.10;;;;;;5072895;28;20044;-51
2022/04/26 20:35:25;;;;;;;7.20;4.40;;;10.90;90.30;;;;;;5074770;28;20055;-50
2022/04/26 20:37:53;;;;;;;7.13;4.45;;;10.80;90.60;;;;;;5069525;28;20087;-50
2022/04/26 20:40:24;;;;;;;9.00;4.60;;;10.70;90.90;;;;;;5066273;28;20049;-52
2022/04/26 20:42:55;;;;;;;9.75;4.88;;;10.60;91.20;;;;;;5074365;28;20079;-53
2022/04/26 20:45:23;;;;;;;6.65;4.72;;;10.50;91.50;;;;;;5068599;28;20439;-55
2022/04/26 20:47:50;;;;;;;9.32;4.78;;;10.40;91.80;;;;;;5055308;28;20055;-53
2022/04/26 20:50:17;;;;;;;6.88;4.60;;;10.40;91.90;;;;;;5055097;28;20448;-49
2022/04/26 20:52:44;;;;;;;5.70;5.10;;;10.30;92.10;;;;;;5055114;28;20127;-53
2022/04/26 20:55:11;;;;;;;9.48;5.13;;;10.30;92.30;;;;;;5055203;28;20480;-53
2022/04/26 20:57:41;;;;;;;10.35;5.53;;;10.20;92.40;;;;;;5073196;28;20046;-52
2022/04/26 21:00:08;;;;;;;6.88;4.90;;;10.20;92.50;;;;;;5062937;28;20048;-53
2022/04/26 21:02:35;;;;;;;8.10;4.55;;;10.10;92.70;;;;;;5066714;28;20091;-52
2022/04/26 21:05:02;;;;;;;7.30;5.35;;;10.10;93.00;;;;;;5062823;28;20559;-54
2022/04/26 21:07:29;;;;;;;8.65;5.03;;;10.00;93.10;;;;;;5058363;28;20407;-56
2022/04/26 21:09:56;;;;;;;10.13;5.60;;;10.00;93.20;;;;;;5054299;28;20049;-54
2022/04/26 21:12:24;;;;;;;7.55;5.18;;;10.00;93.30;;;;;;5063603;28;20119;-52
2022/04/26 21:14:51;;;;;;;9.15;5.50;;;9.90;93.40;;;;;;5059332;28;20045;-50
2022/04/26 21:17:18;;;;;;;12.85;5.68;;;9.90;93.40;;;;;;5057071;28;20391;-52
2022/04/26 21:19:44;;;;;;;6.20;5.18;;;9.90;93.60;;;;;;5056205;28;20037;-54
2022/04/26 21:22:11;;;;;;;10.35;5.15;;;9.80;93.60;;;;;;5064409;28;20079;-50
2022/04/26 21:24:38;;;;;;;8.80;5.35;;;9.80;93.90;;;;;;5071303;28;20048;-53
2022/04/26 21:27:05;;;;;;;8.60;5.75;;;9.70;94.00;;;;;;5059056;28;20040;-57
2022/04/26 21:29:33;;;;;;;9.70;5.68;;;9.70;94.10;;;;;;5071429;28;20036;-54
2022/04/26 21:32:19;;;;;;;9.15;5.78;;;9.70;94.10;;;;;;5088681;28;20040;-57
2022/04/26 21:34:46;;;;;;;9.05;6.00;;;9.70;94.20;;;;;;5059824;28;20058;-54
2022/04/26 21:37:13;;;;;;;12.13;6.28;;;9.60;94.30;;;;;;5067964;28;20047;-56
2022/04/26 21:39:40;;;;;;;10.27;6.50;;;9.60;94.40;;;;;;5069106;28;20086;-56
2022/04/26 21:42:08;;;;;;;10.90;6.75;;;9.60;94.50;;;;;;5056005;28;20041;-51
2022/04/26 21:44:35;;;;;;;11.88;6.30;;;9.60;94.50;;;;;;5063606;28;20411;-52
2022/04/26 21:47:03;;;;;;;12.25;6.68;;;9.60;94.50;;;;;;5056965;28;20037;-54
2022/04/26 21:52:16;;;;;;;8.68;6.28;;;9.40;94.80;;;;;;5056529;28;20053;-51
2022/04/26 21:54:42;;;;;;;9.85;6.63;;;9.40;95.00;;;;;;5066001;28;20044;-52
2022/04/26 21:57:09;;;;;;;15.07;7.22;;;9.30;95.00;;;;;;5058352;28;20037;-54
2022/04/26 21:59:36;;;;;;;7.32;6.28;;;9.30;95.20;;;;;;5053434;28;20033;-51
